Terminal Aerodrome Forecast
Issued by NWS Mt. Holly, NJ

Home | Current Version | Previous Version | Text Only | Print | Product List | Glossary On
Versions: 1 2 3 4 5 6 7 8 9 10 11 12 13 14 15 16 17 18 19 20 21 22 23 24 25 26 27 28
741
FTUS41 KPHI 010304 AAF
TAFACY
TAF AMD
KACY 010304Z 0103/0124 09008KT 3/4SM BR OVC002
     FM010900 17006KT 1/2SM FG BKN200
     FM011100 19008KT 2SM BR BKN200
     FM011300 20011KT P6SM BKN200
     FM011700 21016G25KT P6SM SCT040
      TEMPO 0118/0121 BKN040=

USA.gov is the U.S. government's official web portal to all federal, state and local government web resources and services.